sensor_id;sensor_type;location;lat;lon;timestamp;P1;durP1;ratioP1;P2;durP2;ratioP2
27576;SDS011;15011;53.380;10.034;2023-06-24T00:03:25;8.40;;;6.50;;
27576;SDS011;15011;53.380;10.034;2023-06-24T00:08:30;9.83;;;6.50;;
27576;SDS011;15011;53.380;10.034;2023-06-24T00:13:34;9.20;;;6.65;;
27576;SDS011;15011;53.380;10.034;2023-06-24T00:18:37;11.30;;;6.77;;
27576;SDS011;15011;53.380;10.034;2023-06-24T00:23:41;8.18;;;6.28;;
27576;SDS011;15011;53.380;10.034;2023-06-24T00:28:43;10.98;;;7.43;;
27576;SDS011;15011;53.380;10.034;2023-06-24T00:33:43;9.90;;;6.63;;
27576;SDS011;15011;53.380;10.034;2023-06-24T00:43:44;11.60;;;7.00;;
27576;SDS011;15011;53.380;10.034;2023-06-24T00:48:45;10.20;;;7.55;;
27576;SDS011;15011;53.380;10.034;2023-06-24T00:53:46;10.80;;;8.23;;
27576;SDS011;15011;53.380;10.034;2023-06-24T00:58:48;13.38;;;7.97;;
27576;SDS011;15011;53.380;10.034;2023-06-24T01:03:48;15.30;;;8.13;;
27576;SDS011;15011;53.380;10.034;2023-06-24T01:08:48;14.03;;;8.50;;
27576;SDS011;15011;53.380;10.034;2023-06-24T01:13:51;14.77;;;8.38;;
27576;SDS011;15011;53.380;10.034;2023-06-24T01:18:52;13.98;;;8.80;;
27576;SDS011;15011;53.380;10.034;2023-06-24T01:34:53;14.68;;;9.15;;
27576;SDS011;15011;53.380;10.034;2023-06-24T01:40:01;15.07;;;9.80;;
27576;SDS011;15011;53.380;10.034;2023-06-24T01:45:10;14.57;;;9.35;;
27576;SDS011;15011;53.380;10.034;2023-06-24T01:50:13;13.05;;;8.43;;
27576;SDS011;15011;53.380;10.034;2023-06-24T01:55:17;12.35;;;8.10;;
27576;SDS011;15011;53.380;10.034;2023-06-24T02:00:18;15.65;;;9.55;;
27576;SDS011;15011;53.380;10.034;2023-06-24T02:05:20;13.18;;;9.57;;
27576;SDS011;15011;53.380;10.034;2023-06-24T02:10:22;15.50;;;9.55;;
27576;SDS011;15011;53.380;10.034;2023-06-24T02:15:24;16.90;;;10.77;;
27576;SDS011;15011;53.380;10.034;2023-06-24T02:20:26;16.48;;;10.23;;
27576;SDS011;15011;53.380;10.034;2023-06-24T02:25:28;13.63;;;9.45;;
27576;SDS011;15011;53.380;10.034;2023-06-24T02:35:29;16.73;;;10.57;;
27576;SDS011;15011;53.380;10.034;2023-06-24T02:50:31;16.33;;;9.65;;
27576;SDS011;15011;53.380;10.034;2023-06-24T02:55:33;15.07;;;9.65;;
27576;SDS011;15011;53.380;10.034;2023-06-24T03:05:34;12.48;;;9.15;;
27576;SDS011;15011;53.380;10.034;2023-06-24T03:15:36;14.80;;;9.52;;
27576;SDS011;15011;53.380;10.034;2023-06-24T03:25:39;15.40;;;9.52;;
27576;SDS011;15011;53.380;10.034;2023-06-24T03:30:40;15.68;;;9.52;;
27576;SDS011;15011;53.380;10.034;2023-06-24T03:45:44;16.00;;;8.93;;
27576;SDS011;15011;53.380;10.034;2023-06-24T03:50:45;15.10;;;9.88;;
27576;SDS011;15011;53.380;10.034;2023-06-24T03:55:45;17.17;;;10.27;;
27576;SDS011;15011;53.380;10.034;2023-06-24T04:00:46;20.77;;;11.60;;
27576;SDS011;15011;53.380;10.034;2023-06-24T04:05:49;46.10;;;13.75;;
27576;SDS011;15011;53.380;10.034;2023-06-24T04:10:49;98.27;;;16.07;;
27576;SDS011;15011;53.380;10.034;2023-06-24T04:15:50;48.03;;;14.27;;
27576;SDS011;15011;53.380;10.034;2023-06-24T04:20:50;117.80;;;18.13;;
27576;SDS011;15011;53.380;10.034;2023-06-24T04:25:51;62.47;;;15.23;;
27576;SDS011;15011;53.380;10.034;2023-06-24T04:30:51;82.93;;;14.43;;
27576;SDS011;15011;53.380;10.034;2023-06-24T04:35:52;29.52;;;12.93;;
27576;SDS011;15011;53.380;10.034;2023-06-24T04:40:52;44.03;;;14.53;;
27576;SDS011;15011;53.380;10.034;2023-06-24T04:45:53;53.97;;;15.35;;
27576;SDS011;15011;53.380;10.034;2023-06-24T04:50:55;34.70;;;13.15;;
27576;SDS011;15011;53.380;10.034;2023-06-24T04:55:58;29.30;;;13.85;;
27576;SDS011;15011;53.380;10.034;2023-06-24T05:00:58;20.63;;;10.20;;
27576;SDS011;15011;53.380;10.034;2023-06-24T05:05:59;24.88;;;12.98;;
27576;SDS011;15011;53.380;10.034;2023-06-24T05:10:59;20.00;;;12.30;;
27576;SDS011;15011;53.380;10.034;2023-06-24T05:15:59;20.33;;;12.27;;
27576;SDS011;15011;53.380;10.034;2023-06-24T05:26:01;17.25;;;11.10;;
27576;SDS011;15011;53.380;10.034;2023-06-24T05:31:01;19.37;;;11.90;;
27576;SDS011;15011;53.380;10.034;2023-06-24T05:36:02;17.55;;;10.60;;
27576;SDS011;15011;53.380;10.034;2023-06-24T05:41:02;17.95;;;11.40;;
27576;SDS011;15011;53.380;10.034;2023-06-24T05:46:03;17.40;;;10.73;;
27576;SDS011;15011;53.380;10.034;2023-06-24T05:51:05;18.33;;;11.23;;
27576;SDS011;15011;53.380;10.034;2023-06-24T05:56:05;18.45;;;12.32;;
27576;SDS011;15011;53.380;10.034;2023-06-24T06:06:07;19.63;;;11.30;;
27576;SDS011;15011;53.380;10.034;2023-06-24T06:11:07;18.70;;;11.77;;
27576;SDS011;15011;53.380;10.034;2023-06-24T06:21:08;15.77;;;11.13;;
27576;SDS011;15011;53.380;10.034;2023-06-24T06:26:08;14.03;;;9.63;;
27576;SDS011;15011;53.380;10.034;2023-06-24T06:31:09;14.60;;;9.73;;
27576;SDS011;15011;53.380;10.034;2023-06-24T06:36:09;15.37;;;8.20;;
27576;SDS011;15011;53.380;10.034;2023-06-24T06:41:10;11.10;;;7.53;;
27576;SDS011;15011;53.380;10.034;2023-06-24T06:46:10;10.37;;;6.40;;
27576;SDS011;15011;53.380;10.034;2023-06-24T06:51:10;8.90;;;6.67;;
27576;SDS011;15011;53.380;10.034;2023-06-24T06:56:19;8.90;;;6.70;;
27576;SDS011;15011;53.380;10.034;2023-06-24T07:01:22;9.23;;;6.70;;
27576;SDS011;15011;53.380;10.034;2023-06-24T07:06:22;10.03;;;6.23;;
27576;SDS011;15011;53.380;10.034;2023-06-24T07:11:24;7.20;;;5.27;;
27576;SDS011;15011;53.380;10.034;2023-06-24T07:16:24;12.98;;;7.95;;
27576;SDS011;15011;53.380;10.034;2023-06-24T07:21:24;6.57;;;5.03;;
27576;SDS011;15011;53.380;10.034;2023-06-24T07:26:25;8.30;;;5.47;;
27576;SDS011;15011;53.380;10.034;2023-06-24T07:31:28;6.88;;;4.68;;
27576;SDS011;15011;53.380;10.034;2023-06-24T07:36:29;7.53;;;4.70;;
27576;SDS011;15011;53.380;10.034;2023-06-24T07:41:29;6.23;;;4.77;;
27576;SDS011;15011;53.380;10.034;2023-06-24T07:46:30;4.90;;;4.23;;
27576;SDS011;15011;53.380;10.034;2023-06-24T07:51:32;5.15;;;3.55;;
27576;SDS011;15011;53.380;10.034;2023-06-24T07:56:35;5.70;;;4.38;;
27576;SDS011;15011;53.380;10.034;2023-06-24T08:01:36;5.13;;;3.63;;
27576;SDS011;15011;53.380;10.034;2023-06-24T08:06:37;5.15;;;3.33;;
27576;SDS011;15011;53.380;10.034;2023-06-24T08:11:38;6.53;;;4.20;;
27576;SDS011;15011;53.380;10.034;2023-06-24T08:16:38;3.90;;;3.53;;
27576;SDS011;15011;53.380;10.034;2023-06-24T08:21:39;3.80;;;3.50;;
27576;SDS011;15011;53.380;10.034;2023-06-24T08:32:18;4.55;;;3.65;;
27576;SDS011;15011;53.380;10.034;2023-06-24T08:37:19;4.97;;;4.10;;
27576;SDS011;15011;53.380;10.034;2023-06-24T08:42:19;6.43;;;4.37;;
27576;SDS011;15011;53.380;10.034;2023-06-24T08:47:20;5.87;;;4.23;;
27576;SDS011;15011;53.380;10.034;2023-06-24T08:52:20;5.50;;;5.00;;
27576;SDS011;15011;53.380;10.034;2023-06-24T08:57:21;6.65;;;4.82;;
27576;SDS011;15011;53.380;10.034;2023-06-24T09:02:21;6.07;;;5.07;;
27576;SDS011;15011;53.380;10.034;2023-06-24T09:07:25;5.90;;;4.83;;
27576;SDS011;15011;53.380;10.034;2023-06-24T09:12:28;8.55;;;5.38;;
27576;SDS011;15011;53.380;10.034;2023-06-24T09:17:31;6.32;;;4.90;;
27576;SDS011;15011;53.380;10.034;2023-06-24T09:22:32;5.03;;;4.50;;
27576;SDS011;15011;53.380;10.034;2023-06-24T09:27:32;5.20;;;4.70;;
27576;SDS011;15011;53.380;10.034;2023-06-24T09:32:33;5.75;;;5.03;;
27576;SDS011;15011;53.380;10.034;2023-06-24T09:37:34;5.38;;;4.88;;
27576;SDS011;15011;53.380;10.034;2023-06-24T09:42:34;5.43;;;4.70;;
27576;SDS011;15011;53.380;10.034;2023-06-24T09:47:34;6.47;;;4.53;;
27576;SDS011;15011;53.380;10.034;2023-06-24T09:52:35;5.13;;;4.20;;
27576;SDS011;15011;53.380;10.034;2023-06-24T09:57:36;6.03;;;4.55;;
27576;SDS011;15011;53.380;10.034;2023-06-24T10:02:37;5.82;;;4.35;;
27576;SDS011;15011;53.380;10.034;2023-06-24T10:07:37;5.30;;;4.73;;
27576;SDS011;15011;53.380;10.034;2023-06-24T10:12:39;6.85;;;4.88;;
27576;SDS011;15011;53.380;10.034;2023-06-24T10:17:40;7.78;;;5.78;;
27576;SDS011;15011;53.380;10.034;2023-06-24T10:22:43;5.33;;;4.77;;
27576;SDS011;15011;53.380;10.034;2023-06-24T10:27:46;5.68;;;4.32;;
27576;SDS011;15011;53.380;10.034;2023-06-24T10:32:53;4.28;;;3.83;;
27576;SDS011;15011;53.380;10.034;2023-06-24T10:37:55;5.07;;;4.07;;
27576;SDS011;15011;53.380;10.034;2023-06-24T10:42:56;5.15;;;4.13;;
27576;SDS011;15011;53.380;10.034;2023-06-24T10:47:56;5.20;;;4.70;;
27576;SDS011;15011;53.380;10.034;2023-06-24T10:52:59;5.32;;;4.45;;
27576;SDS011;15011;53.380;10.034;2023-06-24T10:58:09;6.00;;;4.82;;
27576;SDS011;15011;53.380;10.034;2023-06-24T11:03:11;7.18;;;4.30;;
27576;SDS011;15011;53.380;10.034;2023-06-24T11:08:13;5.82;;;4.10;;
27576;SDS011;15011;53.380;10.034;2023-06-24T11:13:13;4.57;;;4.10;;
27576;SDS011;15011;53.380;10.034;2023-06-24T11:18:14;3.90;;;3.60;;
27576;SDS011;15011;53.380;10.034;2023-06-24T11:23:14;4.60;;;4.10;;
27576;SDS011;15011;53.380;10.034;2023-06-24T11:28:18;4.73;;;3.50;;
27576;SDS011;15011;53.380;10.034;2023-06-24T11:33:28;4.00;;;3.60;;
27576;SDS011;15011;53.380;10.034;2023-06-24T11:38:28;4.13;;;3.72;;
27576;SDS011;15011;53.380;10.034;2023-06-24T11:43:32;5.10;;;4.47;;
27576;SDS011;15011;53.380;10.034;2023-06-24T11:48:38;4.97;;;3.90;;
27576;SDS011;15011;53.380;10.034;2023-06-24T11:53:43;4.35;;;3.92;;
27576;SDS011;15011;53.380;10.034;2023-06-24T11:58:44;5.32;;;3.72;;
27576;SDS011;15011;53.380;10.034;2023-06-24T12:03:45;4.60;;;3.50;;
27576;SDS011;15011;53.380;10.034;2023-06-24T12:08:45;5.57;;;3.60;;
27576;SDS011;15011;53.380;10.034;2023-06-24T12:13:47;4.63;;;3.63;;
27576;SDS011;15011;53.380;10.034;2023-06-24T12:18:47;5.07;;;3.65;;
27576;SDS011;15011;53.380;10.034;2023-06-24T12:23:48;5.20;;;3.35;;
27576;SDS011;15011;53.380;10.034;2023-06-24T12:28:48;4.10;;;3.50;;
27576;SDS011;15011;53.380;10.034;2023-06-24T12:33:49;4.93;;;3.37;;
27576;SDS011;15011;53.380;10.034;2023-06-24T12:38:50;4.32;;;3.50;;
27576;SDS011;15011;53.380;10.034;2023-06-24T12:43:51;4.70;;;3.80;;
27576;SDS011;15011;53.380;10.034;2023-06-24T12:48:52;4.23;;;3.70;;
27576;SDS011;15011;53.380;10.034;2023-06-24T12:53:52;3.80;;;3.20;;
27576;SDS011;15011;53.380;10.034;2023-06-24T12:58:54;3.93;;;3.37;;
27576;SDS011;15011;53.380;10.034;2023-06-24T13:03:54;3.40;;;3.10;;
27576;SDS011;15011;53.380;10.034;2023-06-24T13:08:54;4.87;;;4.37;;
27576;SDS011;15011;53.380;10.034;2023-06-24T13:13:55;4.28;;;3.88;;
27576;SDS011;15011;53.380;10.034;2023-06-24T13:18:55;4.13;;;3.73;;
27576;SDS011;15011;53.380;10.034;2023-06-24T13:23:58;4.77;;;3.70;;
27576;SDS011;15011;53.380;10.034;2023-06-24T13:28:58;4.57;;;3.80;;
27576;SDS011;15011;53.380;10.034;2023-06-24T13:33:59;3.83;;;3.53;;
27576;SDS011;15011;53.380;10.034;2023-06-24T13:38:59;6.65;;;3.80;;
27576;SDS011;15011;53.380;10.034;2023-06-24T13:44:00;4.82;;;4.25;;
27576;SDS011;15011;53.380;10.034;2023-06-24T13:49:03;5.38;;;3.67;;
27576;SDS011;15011;53.380;10.034;2023-06-24T13:54:05;5.37;;;4.00;;
27576;SDS011;15011;53.380;10.034;2023-06-24T13:59:06;3.97;;;3.67;;
27576;SDS011;15011;53.380;10.034;2023-06-24T14:04:07;4.60;;;3.70;;
27576;SDS011;15011;53.380;10.034;2023-06-24T14:09:07;4.10;;;3.80;;
27576;SDS011;15011;53.380;10.034;2023-06-24T14:14:08;4.60;;;4.20;;
27576;SDS011;15011;53.380;10.034;2023-06-24T14:19:08;5.20;;;4.10;;
27576;SDS011;15011;53.380;10.034;2023-06-24T14:24:08;6.40;;;4.10;;
27576;SDS011;15011;53.380;10.034;2023-06-24T14:29:11;5.00;;;4.07;;
27576;SDS011;15011;53.380;10.034;2023-06-24T14:34:12;4.47;;;4.03;;
27576;SDS011;15011;53.380;10.034;2023-06-24T14:39:14;5.85;;;3.85;;
27576;SDS011;15011;53.380;10.034;2023-06-24T14:44:16;3.92;;;3.40;;
27576;SDS011;15011;53.380;10.034;2023-06-24T14:49:16;5.73;;;3.50;;
27576;SDS011;15011;53.380;10.034;2023-06-24T14:54:17;4.15;;;3.80;;
27576;SDS011;15011;53.380;10.034;2023-06-24T14:59:19;4.78;;;4.38;;
27576;SDS011;15011;53.380;10.034;2023-06-24T15:04:19;4.20;;;3.70;;
27576;SDS011;15011;53.380;10.034;2023-06-24T15:09:21;5.37;;;3.70;;
27576;SDS011;15011;53.380;10.034;2023-06-24T15:14:22;7.43;;;4.20;;
27576;SDS011;15011;53.380;10.034;2023-06-24T15:19:23;4.13;;;3.70;;
27576;SDS011;15011;53.380;10.034;2023-06-24T15:24:23;3.93;;;3.43;;
27576;SDS011;15011;53.380;10.034;2023-06-24T15:29:24;4.73;;;3.67;;
27576;SDS011;15011;53.380;10.034;2023-06-24T15:34:25;4.13;;;3.63;;
27576;SDS011;15011;53.380;10.034;2023-06-24T15:39:25;4.70;;;3.73;;
27576;SDS011;15011;53.380;10.034;2023-06-24T15:44:26;4.73;;;3.77;;
27576;SDS011;15011;53.380;10.034;2023-06-24T15:49:26;4.10;;;3.70;;
27576;SDS011;15011;53.380;10.034;2023-06-24T15:54:26;4.37;;;3.87;;
27576;SDS011;15011;53.380;10.034;2023-06-24T15:59:27;5.23;;;3.80;;
27576;SDS011;15011;53.380;10.034;2023-06-24T16:04:27;5.03;;;4.13;;
27576;SDS011;15011;53.380;10.034;2023-06-24T16:09:28;3.88;;;3.47;;
27576;SDS011;15011;53.380;10.034;2023-06-24T16:14:28;4.57;;;3.65;;
27576;SDS011;15011;53.380;10.034;2023-06-24T16:19:29;4.03;;;3.60;;
27576;SDS011;15011;53.380;10.034;2023-06-24T16:24:29;4.67;;;4.00;;
27576;SDS011;15011;53.380;10.034;2023-06-24T16:29:29;4.70;;;4.20;;
27576;SDS011;15011;53.380;10.034;2023-06-24T16:34:30;3.83;;;3.50;;
27576;SDS011;15011;53.380;10.034;2023-06-24T16:39:30;5.53;;;3.63;;
27576;SDS011;15011;53.380;10.034;2023-06-24T16:44:31;4.30;;;3.90;;
27576;SDS011;15011;53.380;10.034;2023-06-24T16:49:36;5.20;;;3.47;;
27576;SDS011;15011;53.380;10.034;2023-06-24T16:54:36;6.23;;;4.07;;
27576;SDS011;15011;53.380;10.034;2023-06-24T16:59:37;4.93;;;4.10;;
27576;SDS011;15011;53.380;10.034;2023-06-24T17:04:37;5.57;;;4.23;;
27576;SDS011;15011;53.380;10.034;2023-06-24T17:09:37;4.37;;;3.93;;
27576;SDS011;15011;53.380;10.034;2023-06-24T17:14:38;5.00;;;3.93;;
27576;SDS011;15011;53.380;10.034;2023-06-24T17:19:38;5.20;;;4.27;;
27576;SDS011;15011;53.380;10.034;2023-06-24T17:24:40;5.20;;;4.70;;
27576;SDS011;15011;53.380;10.034;2023-06-24T17:29:40;4.57;;;4.07;;
27576;SDS011;15011;53.380;10.034;2023-06-24T17:34:40;4.13;;;3.70;;
27576;SDS011;15011;53.380;10.034;2023-06-24T17:39:41;5.67;;;4.07;;
27576;SDS011;15011;53.380;10.034;2023-06-24T17:44:41;5.47;;;3.90;;
27576;SDS011;15011;53.380;10.034;2023-06-24T17:49:41;5.40;;;4.03;;
27576;SDS011;15011;53.380;10.034;2023-06-24T17:54:42;6.57;;;4.07;;
27576;SDS011;15011;53.380;10.034;2023-06-24T17:59:42;4.50;;;4.10;;
27576;SDS011;15011;53.380;10.034;2023-06-24T18:04:45;4.93;;;4.30;;
27576;SDS011;15011;53.380;10.034;2023-06-24T18:09:45;6.00;;;5.40;;
27576;SDS011;15011;53.380;10.034;2023-06-24T18:14:46;5.07;;;4.67;;
27576;SDS011;15011;53.380;10.034;2023-06-24T18:19:47;5.22;;;4.75;;
27576;SDS011;15011;53.380;10.034;2023-06-24T18:24:48;4.50;;;4.07;;
27576;SDS011;15011;53.380;10.034;2023-06-24T18:29:48;6.00;;;4.63;;
27576;SDS011;15011;53.380;10.034;2023-06-24T18:34:49;5.70;;;4.30;;
27576;SDS011;15011;53.380;10.034;2023-06-24T18:39:50;6.15;;;4.63;;
27576;SDS011;15011;53.380;10.034;2023-06-24T18:44:52;5.72;;;4.57;;
27576;SDS011;15011;53.380;10.034;2023-06-24T18:49:53;5.90;;;4.65;;
27576;SDS011;15011;53.380;10.034;2023-06-24T18:54:53;4.80;;;4.30;;
27576;SDS011;15011;53.380;10.034;2023-06-24T18:59:53;5.93;;;5.03;;
27576;SDS011;15011;53.380;10.034;2023-06-24T19:04:54;5.17;;;4.67;;
27576;SDS011;15011;53.380;10.034;2023-06-24T19:09:54;6.00;;;5.03;;
27576;SDS011;15011;53.380;10.034;2023-06-24T19:14:55;4.93;;;4.43;;
27576;SDS011;15011;53.380;10.034;2023-06-24T19:19:55;5.00;;;4.50;;
27576;SDS011;15011;53.380;10.034;2023-06-24T19:24:55;5.20;;;4.70;;
27576;SDS011;15011;53.380;10.034;2023-06-24T19:29:56;6.47;;;5.00;;
27576;SDS011;15011;53.380;10.034;2023-06-24T19:34:56;5.43;;;4.93;;
27576;SDS011;15011;53.380;10.034;2023-06-24T19:39:56;5.93;;;4.60;;
27576;SDS011;15011;53.380;10.034;2023-06-24T19:44:57;6.55;;;5.85;;
27576;SDS011;15011;53.380;10.034;2023-06-24T19:49:57;5.83;;;5.17;;
27576;SDS011;15011;53.380;10.034;2023-06-24T19:54:58;5.85;;;5.32;;
27576;SDS011;15011;53.380;10.034;2023-06-24T19:59:59;8.27;;;6.18;;
27576;SDS011;15011;53.380;10.034;2023-06-24T20:05:00;8.07;;;6.10;;
27576;SDS011;15011;53.380;10.034;2023-06-24T20:10:00;5.68;;;5.13;;
27576;SDS011;15011;53.380;10.034;2023-06-24T20:15:01;5.93;;;5.20;;
27576;SDS011;15011;53.380;10.034;2023-06-24T20:20:01;6.43;;;5.20;;
27576;SDS011;15011;53.380;10.034;2023-06-24T20:25:02;7.03;;;5.70;;
27576;SDS011;15011;53.380;10.034;2023-06-24T20:30:02;6.30;;;5.53;;
27576;SDS011;15011;53.380;10.034;2023-06-24T20:35:03;6.93;;;5.70;;
27576;SDS011;15011;53.380;10.034;2023-06-24T20:40:05;7.70;;;5.85;;
27576;SDS011;15011;53.380;10.034;2023-06-24T20:45:06;8.13;;;6.28;;
27576;SDS011;15011;53.380;10.034;2023-06-24T20:50:07;6.10;;;5.50;;
27576;SDS011;15011;53.380;10.034;2023-06-24T20:55:07;8.90;;;7.13;;
27576;SDS011;15011;53.380;10.034;2023-06-24T21:00:08;6.70;;;5.45;;
27576;SDS011;15011;53.380;10.034;2023-06-24T21:05:09;6.30;;;5.60;;
27576;SDS011;15011;53.380;10.034;2023-06-24T21:10:09;7.95;;;6.07;;
27576;SDS011;15011;53.380;10.034;2023-06-24T21:15:12;8.90;;;6.15;;
27576;SDS011;15011;53.380;10.034;2023-06-24T21:20:12;6.85;;;5.80;;
27576;SDS011;15011;53.380;10.034;2023-06-24T21:25:13;7.17;;;6.47;;
27576;SDS011;15011;53.380;10.034;2023-06-24T21:30:13;7.40;;;6.70;;
27576;SDS011;15011;53.380;10.034;2023-06-24T21:35:14;7.43;;;6.18;;
27576;SDS011;15011;53.380;10.034;2023-06-24T21:40:14;7.07;;;6.23;;
27576;SDS011;15011;53.380;10.034;2023-06-24T21:45:15;28.42;;;18.80;;
27576;SDS011;15011;53.380;10.034;2023-06-24T21:50:15;6.70;;;5.97;;
27576;SDS011;15011;53.380;10.034;2023-06-24T21:55:17;7.68;;;5.95;;
27576;SDS011;15011;53.380;10.034;2023-06-24T22:00:17;7.22;;;6.35;;
27576;SDS011;15011;53.380;10.034;2023-06-24T22:05:18;6.72;;;6.13;;
27576;SDS011;15011;53.380;10.034;2023-06-24T22:10:18;7.20;;;6.50;;
27576;SDS011;15011;53.380;10.034;2023-06-24T22:15:18;7.07;;;6.33;;
27576;SDS011;15011;53.380;10.034;2023-06-24T22:20:19;8.47;;;7.07;;
27576;SDS011;15011;53.380;10.034;2023-06-24T22:25:19;9.65;;;6.80;;
27576;SDS011;15011;53.380;10.034;2023-06-24T22:30:20;9.63;;;6.33;;
27576;SDS011;15011;53.380;10.034;2023-06-24T22:35:20;8.47;;;6.57;;
27576;SDS011;15011;53.380;10.034;2023-06-24T22:40:20;7.87;;;6.70;;
27576;SDS011;15011;53.380;10.034;2023-06-24T22:45:21;7.95;;;6.38;;
27576;SDS011;15011;53.380;10.034;2023-06-24T22:50:21;7.93;;;6.70;;
27576;SDS011;15011;53.380;10.034;2023-06-24T22:55:22;7.63;;;6.83;;
27576;SDS011;15011;53.380;10.034;2023-06-24T23:00:22;8.68;;;6.80;;
27576;SDS011;15011;53.380;10.034;2023-06-24T23:05:23;9.77;;;7.83;;
27576;SDS011;15011;53.380;10.034;2023-06-24T23:10:24;7.68;;;6.45;;
27576;SDS011;15011;53.380;10.034;2023-06-24T23:15:25;8.93;;;6.68;;
27576;SDS011;15011;53.380;10.034;2023-06-24T23:20:26;7.72;;;6.80;;
27576;SDS011;15011;53.380;10.034;2023-06-24T23:25:27;7.75;;;6.25;;
27576;SDS011;15011;53.380;10.034;2023-06-24T23:30:30;9.48;;;7.75;;
27576;SDS011;15011;53.380;10.034;2023-06-24T23:35:35;9.20;;;7.32;;
27576;SDS011;15011;53.380;10.034;2023-06-24T23:40:36;8.90;;;7.35;;
27576;SDS011;15011;53.380;10.034;2023-06-24T23:45:37;8.40;;;7.43;;
27576;SDS011;15011;53.380;10.034;2023-06-24T23:50:37;9.68;;;7.80;;
27576;SDS011;15011;53.380;10.034;2023-06-24T23:55:38;7.73;;;6.90;;
